Aérodrome :
LOGIN :

S'inscrire | Disclaimer

   EN    FR    IT 

 










Légende :    VFR   VFR Marginal   IFR   IFR Intensif   IFR Très Intensif
Visi : 
Plafond : 
>= 8 km
>= 3000ft
5 à 8 km
1000 à 3000 ft
1500m à 5 km
500 à 1000 ft
800 à 1500m
200 à 500 ft
< 800m
< 200 ft
Symboles :   Orages  Brouillard  Fortes neiges  Fortes précipitations  Vent > 20 kt
SIGMETs :   Divers  Orages  Givrage  Turbulence  Onde Orograph.  Cendres Volcan.






- Altitude de l'aérodrome : 2077 ft
- Code IATA : FMM


EDJA - Memmingen

DERNIER METAR :
  • 221350Z VRB03KT CAVOK 23/08 Q1014

METARs EXPIRÉS :
  • 221320Z 33005KT 300V020 CAVOK 22/07 Q1014
  • 221250Z VRB04KT CAVOK 22/08 Q1015
  • 221220Z VRB02KT CAVOK 23/09 Q1015
  • 221150Z VRB03KT CAVOK 22/11 Q1015
  • 221120Z 26004KT 190V320 CAVOK 21/09 Q1016

TAF TAF EDJA
Valide du 22 à 12h jusqu'au 22 à 21h UTC


221100Z 2212/2221 35004KT CAVOK



MET'MAP, la Météo Aéronautique d'un coup d'oeil ! - Copyright ORBIFLY Décembre 2007 - Disclaimer

ORBIFLY MET'MAP TEAM :

Programmation & Développement : Alexandra Zaïnal
Sur une idée originale de : Baudouin d'Aumeries
Soutien technique & logistique : Manuel Goepfert
Assistance : Marc-Olivier Méhu

Contact : metmap@orbifly.com




SOURCES & CREDITS :

   NOAA